Terminal Aerodrome Forecast
Issued by NWS Sterling, VA

Home | Current Version | Previous Version | Text Only | Print | Product List | Glossary On
Versions: 1 2 3 4 5 6 7 8 9 10 11 12 13 14 15 16 17 18 19 20 21 22 23 24 25 26 27 28
000
FTUS41 KLWX 172300 RRA
TAFDCA
TAF
KDCA 172345Z 1800/1824 10008KT P6SM FEW050 SCT200
     FM180600 05005KT P6SM BKN050
     FM181200 03005KT P6SM BKN020
     FM181500 09005KT P6SM OVC100
     FM181800 12005KT P6SM OVC250=

USA.gov is the U.S. government's official web portal to all federal, state and local government web resources and services.